LTBI/ESK METAR and TAF weather

Enter ICAO airport designator
Station Type Date Time Source
LTBI METAR 2021/04/18 02:50 UTC NOAA

LTBI 180250Z VRB01KT 9999 SCT035 BKN100 14/10 Q1017 RESHRA NOSIG RMK RWY08 00000KT


Station Type Date Time Source
LTBI Decoded METAR 2021/04/18 02:50 UTC NOAA

Eskisehir, Turkey (LTBI) 39-47N 030-34E 785M
Apr 17, 2021 - 10:50 PM EDT / 2021.04.18 0250 UTC
Wind: Variable at 1 MPH (1 KT):0
Visibility: greater than 7 mile(s):0
Sky conditions: mostly cloudy
Temperature: 57 F (14 C)
Dew Point: 50 F (10 C)
Relative Humidity: 76%
Pressure (altimeter): 30.03 in. Hg (1017 hPa)
ob: LTBI 180250Z VRB01KT 9999 SCT035 BKN100 14/10 Q1017 RESHRA NOSIG RMK RWY08 00000KT
cycle: 3

Station Type Date Time Source
LTBI TAF 2012/05/11 09:09 UTC NOAA

TAF LTBI 110740Z 1109/1121 VRB02KT 6000 -SHRA BKN030 BKN090
TEMPO 1112/1116 33015KT 4000 -TSRA FEW025CB BKN030

Example: see airport list